Terminal Aerodrome Forecast
Issued by NWS

Home | Current Version | Previous Version | Text Only | Print | Product List | Glossary On
Versions: 1 2 3 4 5 6 7 8 9 10 11 12 13 14 15 16 17 18 19 20 21
000
FTUS43 KBIS 231700
TAFJMS
TAF
KJMS 231734Z 2318/2418 06008KT 6SM -SHRA OVC003
      TEMPO 2318/2322 3SM SHRA BR OVC006
     FM240000 08015KT 5SM -SHRA BR OVC004
     FM241000 13012KT 6SM BR VCSH OVC004
     FM241500 21008KT P6SM OVC008=

USA.gov is the U.S. government's official web portal to all federal, state and local government web resources and services.